CheckWX is a tool to help pilots better visualize weather data.  It is not intended as a substitute for an official pre-flight weather briefing.

16:21:25 UTC

ETHF TAF
Fritzlar Airport
Fritzlar, Germany
TAF ETHF 181417Z 1815/1824 28010KT 9999 NSW FEW020 SCT040 TEMPO 1815/1818 29015G25KT 4000 SHRA FEW010 BKN015CB

Mar-18@
15:00 UTC

Mar-18 @ 15:00 UTC

Mar-19@
00:00 UTC

Mar-19 @ 00:00 UTC

TAF ETHF 181417Z 1815/1824 28010KT 9999 NSW FEW020 SCT040
Wind
  • 280° at 10 KTS
Conditions
No significant weather
Cloud Levels
  • Few at 2,000' AGL
  • Scattered at 4,000' AGL

Mar-18@
15:00 UTC

Mar-18 @ 15:00 UTC

Mar-18@
18:00 UTC

Mar-18 @ 18:00 UTC

TEMPO 1815/1818 29015G25KT 4000 SHRA FEW010 BKN015CB

Temporary

Temporary Changes expected for less than half the time period

Wind
  • 290° at 15 KTS
  • {Gusting to 25 KTS
Conditions
Rain
Cloud Levels
  • Few at 1,000' AGL
  • Broken at 1,500' AGL